createdAt,value
2018-11-12T00:16:18.753Z,26.17
2018-11-12T00:19:33.689Z,28.33
2018-11-12T00:22:45.434Z,28.87
2018-11-12T00:29:01.698Z,26.53
2018-11-12T00:32:06.716Z,23.32
2018-11-12T00:35:11.445Z,24.20
2018-11-12T00:38:15.525Z,23.77
2018-11-12T00:41:19.425Z,26.80
2018-11-12T00:44:23.132Z,28.20
2018-11-12T00:47:27.562Z,26.80
2018-11-12T00:50:30.609Z,25.67
2018-11-12T00:53:34.133Z,26.80
2018-11-12T00:56:37.689Z,27.07
2018-11-12T00:59:42.227Z,27.10
2018-11-12T01:02:50.262Z,27.70
2018-11-12T01:05:54.454Z,25.67
2018-11-12T01:08:57.442Z,24.20
2018-11-12T01:12:00.989Z,23.62
2018-11-12T01:15:04.842Z,25.23
2018-11-12T01:18:08.617Z,23.60
2018-11-12T01:21:13.017Z,26.87
2018-11-12T01:24:17.078Z,28.00
2018-11-12T01:27:20.117Z,22.33
2018-11-12T01:30:24.236Z,22.13
2018-11-12T01:33:27.734Z,22.35
2018-11-12T01:36:31.837Z,23.98
2018-11-12T01:39:35.434Z,25.43
2018-11-12T01:42:39.301Z,26.17
2018-11-12T01:45:44.018Z,29.23
2018-11-12T01:48:47.845Z,25.17
2018-11-12T01:51:53.705Z,23.47
2018-11-12T01:54:57.786Z,26.37
2018-11-12T01:58:01.714Z,25.67
2018-11-12T02:01:05.661Z,23.87
2018-11-12T02:04:09.362Z,22.80
2018-11-12T02:07:12.918Z,26.80
2018-11-12T02:10:16.889Z,25.07
2018-11-12T02:13:20.505Z,24.53
2018-11-12T02:16:24.005Z,25.63
2018-11-12T02:19:28.061Z,26.63
2018-11-12T02:22:31.091Z,25.47
2018-11-12T02:25:34.029Z,26.17
2018-11-12T02:28:38.173Z,24.43
2018-11-12T02:31:41.803Z,24.13
2018-11-12T02:34:45.458Z,25.30
2018-11-12T02:37:50.287Z,25.73
2018-11-12T02:40:53.998Z,26.10
2018-11-12T02:43:59.342Z,27.60
2018-11-12T02:47:04.542Z,24.27
2018-11-12T02:50:10.092Z,26.33
2018-11-12T02:53:14.662Z,27.37
2018-11-12T02:56:18.784Z,27.23
2018-11-12T02:59:22.749Z,27.20
2018-11-12T03:02:26.916Z,27.03
2018-11-12T03:05:30.837Z,29.37
2018-11-12T03:08:35.561Z,28.67
2018-11-12T03:11:39.282Z,23.63
2018-11-12T03:14:43.469Z,23.30
2018-11-12T03:17:47.891Z,23.67
2018-11-12T03:20:51.929Z,26.87
2018-11-12T03:23:55.625Z,27.03
2018-11-12T03:26:59.261Z,26.97
2018-11-12T03:30:02.345Z,28.77
2018-11-12T03:33:06.241Z,25.60
2018-11-12T03:36:09.842Z,23.57
2018-11-12T03:39:12.810Z,23.93
2018-11-12T03:42:16.233Z,30.27
2018-11-12T03:45:20.471Z,32.17
2018-11-12T03:48:25.392Z,30.30
2018-11-12T03:51:29.439Z,28.43
2018-11-12T03:54:32.526Z,26.33
2018-11-12T03:57:36.841Z,29.40
2018-11-12T04:00:41.146Z,23.30
2018-11-12T04:03:44.841Z,25.30
2018-11-12T04:06:49.062Z,24.33
2018-11-12T04:09:52.121Z,27.77
2018-11-12T04:12:55.792Z,30.83
2018-11-12T04:15:58.600Z,27.90
2018-11-12T04:19:01.400Z,24.20
2018-11-12T04:22:04.561Z,26.47
2018-11-12T04:25:08.129Z,26.30
2018-11-12T04:28:10.933Z,27.50
2018-11-12T04:31:13.713Z,31.97
2018-11-12T04:34:16.601Z,27.77
2018-11-12T04:37:19.406Z,31.37
2018-11-12T04:40:22.267Z,31.77
2018-11-12T04:43:25.050Z,24.52
2018-11-12T04:46:27.881Z,20.57
2018-11-12T04:49:30.654Z,25.70
2018-11-12T04:52:33.449Z,27.35
2018-11-12T04:55:36.589Z,26.90
2018-11-12T04:58:39.377Z,25.57
2018-11-12T05:01:42.218Z,26.07
2018-11-12T05:04:45.014Z,26.63
2018-11-12T05:07:47.965Z,26.70
2018-11-12T05:10:50.758Z,28.55
2018-11-12T05:13:53.600Z,21.80
2018-11-12T05:16:56.377Z,21.33
2018-11-12T05:19:59.246Z,41.60
2018-11-12T05:23:02.022Z,26.20
2018-11-12T05:26:04.911Z,30.00
2018-11-12T05:29:07.690Z,43.47
2018-11-12T05:32:10.545Z,42.03
2018-11-12T05:35:14.559Z,46.73
2018-11-12T05:38:17.444Z,46.33
2018-11-12T05:41:20.341Z,42.63
2018-11-12T05:44:23.149Z,36.98
2018-11-12T05:47:25.981Z,37.67
2018-11-12T05:50:30.327Z,31.33
2018-11-12T05:53:33.150Z,34.33
2018-11-12T05:56:35.937Z,23.37
2018-11-12T05:59:38.741Z,23.53
2018-11-12T06:02:41.865Z,24.73
2018-11-12T06:05:44.663Z,27.17
2018-11-12T06:08:47.494Z,26.83
2018-11-12T06:11:50.308Z,24.67
2018-11-12T06:14:53.129Z,28.27
2018-11-12T06:17:55.913Z,29.97
2018-11-12T06:20:58.799Z,29.43
2018-11-12T06:24:01.583Z,23.30
2018-11-12T06:27:04.563Z,24.73
2018-11-12T06:30:10.643Z,24.35
2018-11-12T06:33:13.565Z,27.13
2018-11-12T06:36:16.382Z,27.57
2018-11-12T06:39:19.303Z,28.67
2018-11-12T06:42:22.084Z,28.45
2018-11-12T06:45:26.161Z,30.20
2018-11-12T06:48:28.942Z,31.47
2018-11-12T06:51:31.767Z,27.97
2018-11-12T06:54:34.550Z,30.77
2018-11-12T06:57:37.413Z,31.23
2018-11-12T07:00:40.348Z,30.80
2018-11-12T07:03:43.146Z,28.57
2018-11-12T07:06:45.954Z,26.65
2018-11-12T07:09:48.927Z,25.17
2018-11-12T07:12:52.720Z,25.40
2018-11-12T07:15:55.524Z,28.27
2018-11-12T07:18:58.411Z,27.60
2018-11-12T07:22:01.193Z,28.73
2018-11-12T07:25:04.278Z,29.17
2018-11-12T07:28:07.078Z,28.80
2018-11-12T07:31:09.919Z,29.40
2018-11-12T07:34:12.690Z,30.77
2018-11-12T07:37:15.473Z,29.80
2018-11-12T07:40:18.716Z,31.27
2018-11-12T07:43:21.543Z,32.27
2018-11-12T07:46:24.370Z,29.57
2018-11-12T07:49:27.305Z,27.90
2018-11-12T07:52:30.129Z,29.50
2018-11-12T07:55:33.982Z,31.03
2018-11-12T07:58:36.806Z,29.23
2018-11-12T08:01:39.598Z,31.37
2018-11-12T08:04:42.390Z,30.90
2018-11-12T08:07:45.591Z,30.60
2018-11-12T08:10:48.657Z,31.60
2018-11-12T08:13:51.446Z,30.95
2018-11-12T08:16:54.237Z,28.10
2018-11-12T08:19:57.251Z,30.60
2018-11-12T08:23:00.086Z,30.30
2018-11-12T08:26:03.087Z,29.35
2018-11-12T08:29:05.986Z,31.07
2018-11-12T08:32:08.817Z,29.50
2018-11-12T08:35:12.298Z,28.92
2018-11-12T08:38:15.183Z,29.50
2018-11-12T08:41:18.004Z,30.85
2018-11-12T08:44:20.781Z,31.12
2018-11-12T08:47:23.574Z,29.18
2018-11-12T08:50:27.105Z,29.97
2018-11-12T08:53:29.922Z,31.77
2018-11-12T08:56:33.377Z,31.25
2018-11-12T08:59:36.233Z,31.02
2018-11-12T09:02:42.265Z,30.72
2018-11-12T09:05:45.096Z,31.40
2018-11-12T09:08:47.942Z,31.33
2018-11-12T09:11:50.749Z,33.18
2018-11-12T09:14:53.545Z,33.42
2018-11-12T09:17:56.341Z,30.10
2018-11-12T09:20:59.141Z,30.80
2018-11-12T09:24:02.372Z,28.17
2018-11-12T09:27:05.732Z,30.97
2018-11-12T09:30:11.430Z,30.05
2018-11-12T09:33:14.441Z,28.20
2018-11-12T09:36:17.320Z,26.48
2018-11-12T09:39:20.206Z,28.95
2018-11-12T09:42:23.052Z,27.58
2018-11-12T09:45:26.005Z,27.02
2018-11-12T09:48:28.802Z,26.82
2018-11-12T10:35:54.209Z,22.45
2018-11-12T10:39:03.668Z,21.17
2018-11-12T10:42:18.462Z,22.48
2018-11-12T10:45:35.038Z,20.43
2018-11-12T13:43:06.691Z,8.25
2018-11-12T14:08:10.666Z,9.10
2018-11-12T14:51:42.488Z,9.58
2018-11-12T14:54:46.993Z,9.48
2018-11-12T14:57:55.386Z,10.63
2018-11-12T15:01:00.581Z,10.30
2018-11-12T15:04:06.085Z,9.90
2018-11-12T15:07:17.162Z,10.38
2018-11-12T15:10:21.307Z,11.38
2018-11-12T15:13:25.590Z,11.88
2018-11-12T15:16:29.930Z,11.15
2018-11-12T15:19:34.192Z,10.70
2018-11-12T15:22:38.778Z,11.35
2018-11-12T15:25:43.326Z,11.45
2018-11-12T15:28:48.302Z,11.33
2018-11-12T15:31:53.898Z,12.63
2018-11-12T15:34:58.178Z,11.12
2018-11-12T15:38:01.186Z,11.75
2018-11-12T15:41:05.558Z,12.78
2018-11-12T15:44:09.213Z,13.05
2018-11-12T15:47:13.213Z,12.43
2018-11-12T15:50:32.708Z,12.63
2018-11-12T15:53:50.250Z,12.60
2018-11-12T15:56:53.248Z,13.40
2018-11-12T15:59:59.993Z,13.50
2018-11-12T16:03:04.097Z,14.23
2018-11-12T16:06:07.811Z,13.30
2018-11-12T16:09:13.401Z,13.10
2018-11-12T16:12:16.564Z,13.13
2018-11-12T16:15:22.186Z,14.70
2018-11-12T16:18:27.501Z,16.95
2018-11-12T16:21:31.046Z,14.73
2018-11-12T16:24:35.668Z,14.60
2018-11-12T16:27:39.625Z,14.15
2018-11-12T16:30:43.834Z,14.30
2018-11-12T16:33:47.422Z,15.38
2018-11-12T16:36:52.324Z,15.13
2018-11-12T16:39:55.346Z,14.43
2018-11-12T16:43:00.841Z,14.75
2018-11-12T16:46:04.559Z,15.72
2018-11-12T16:49:09.821Z,15.78
2018-11-12T16:52:13.294Z,16.67
2018-11-12T16:55:20.808Z,16.12
2018-11-12T16:58:24.425Z,16.45
2018-11-12T17:01:30.564Z,15.50
2018-11-12T17:04:33.694Z,16.67
2018-11-12T17:07:41.777Z,17.05
2018-11-12T17:10:45.569Z,15.68
2018-11-12T17:13:50.417Z,15.90
2018-11-12T17:16:54.113Z,17.35
2018-11-12T17:19:59.478Z,16.32
2018-11-12T17:23:03.204Z,15.95
2018-11-12T17:26:07.392Z,16.40
2018-11-12T17:29:10.453Z,14.58
2018-11-12T17:32:20.266Z,15.68
2018-11-12T17:35:28.415Z,14.20
2018-11-12T17:38:32.335Z,14.70
2018-11-12T17:41:42.276Z,14.03
2018-11-12T17:44:47.069Z,16.07
2018-11-12T17:47:51.047Z,14.78
2018-11-12T17:51:06.098Z,14.15
2018-11-12T17:54:14.820Z,13.55
2018-11-12T17:57:18.319Z,14.00
2018-11-12T18:00:30.019Z,13.72
2018-11-12T18:03:33.831Z,14.20
2018-11-12T18:06:37.434Z,15.13
2018-11-12T18:09:43.301Z,14.03
2018-11-12T18:12:47.690Z,15.08
2018-11-12T18:16:01.882Z,14.85
2018-11-12T18:19:05.819Z,13.60
2018-11-12T18:22:09.685Z,13.83
2018-11-12T18:25:15.202Z,13.80
2018-11-12T18:28:19.285Z,12.60
2018-11-12T18:31:23.841Z,12.13
2018-11-12T18:34:27.798Z,12.85
2018-11-12T18:37:32.754Z,13.00
2018-11-12T18:40:36.416Z,12.75
2018-11-12T18:43:42.678Z,13.22
2018-11-12T18:46:47.678Z,13.35
2018-11-12T18:49:52.638Z,13.00
2018-11-12T18:52:55.776Z,13.45
2018-11-12T18:55:58.736Z,12.60
2018-11-12T18:59:02.777Z,12.40
2018-11-12T19:02:06.742Z,12.07
2018-11-12T19:05:15.519Z,12.20
2018-11-12T19:08:19.090Z,12.40
2018-11-12T19:11:23.166Z,12.45
2018-11-12T19:14:26.225Z,12.43
2018-11-12T19:17:30.725Z,12.20
2018-11-12T19:20:34.701Z,12.75
2018-11-12T19:23:39.293Z,12.23
2018-11-12T19:26:43.125Z,12.33
2018-11-12T19:29:47.937Z,12.03
2018-11-12T19:32:51.338Z,12.65
2018-11-12T19:36:00.498Z,13.00
2018-11-12T19:39:05.981Z,12.93
2018-11-12T19:42:10.010Z,12.90
2018-11-12T19:45:13.873Z,12.88
2018-11-12T19:48:19.309Z,12.50
2018-11-12T19:51:22.945Z,12.25
2018-11-12T19:54:28.351Z,12.85
2018-11-12T19:57:32.563Z,12.95
2018-11-12T20:00:37.005Z,13.28
2018-11-12T20:03:41.150Z,12.95
2018-11-12T20:06:46.242Z,13.40
2018-11-12T20:09:50.390Z,12.15
2018-11-12T20:12:54.663Z,12.50
2018-11-12T20:15:59.929Z,12.33
2018-11-12T20:19:05.670Z,12.33
2018-11-12T20:22:09.161Z,13.15
2018-11-12T20:25:14.067Z,12.80
2018-11-12T20:28:17.857Z,13.35
2018-11-12T20:31:20.917Z,13.70
2018-11-12T20:34:23.943Z,13.60
2018-11-12T20:37:28.410Z,13.08
2018-11-12T20:40:32.640Z,13.55
2018-11-12T20:43:36.468Z,12.47
2018-11-12T20:46:41.579Z,13.85
2018-11-12T20:49:44.678Z,13.95
2018-11-12T20:52:50.299Z,13.25
2018-11-12T20:55:53.326Z,12.73
2018-11-12T20:58:56.821Z,13.08
2018-11-12T21:02:01.733Z,13.70
2018-11-12T21:05:05.589Z,12.88
2018-11-12T21:08:09.753Z,12.50
2018-11-12T21:11:13.432Z,12.82
2018-11-12T21:14:16.493Z,13.10
2018-11-12T21:17:21.053Z,13.30
2018-11-12T21:20:25.055Z,12.85
2018-11-12T21:23:28.894Z,13.22
2018-11-12T21:26:33.149Z,13.18
2018-11-12T21:29:36.105Z,12.85
2018-11-12T21:32:40.185Z,13.18
2018-11-12T21:35:43.131Z,13.45
2018-11-12T21:38:46.123Z,12.35
2018-11-12T21:41:49.901Z,11.12
2018-11-12T21:44:53.641Z,13.15
2018-11-12T21:47:57.790Z,11.88
2018-11-12T21:51:00.742Z,12.63
2018-11-12T21:54:04.673Z,12.10
2018-11-12T21:57:09.509Z,13.10
2018-11-12T22:00:30.429Z,12.18
2018-11-12T22:03:34.253Z,12.78
2018-11-12T22:06:38.045Z,12.80
2018-11-12T22:09:42.262Z,12.18
2018-11-12T22:12:47.516Z,12.40
2018-11-12T22:15:50.450Z,12.35
2018-11-12T22:18:53.225Z,12.82
2018-11-12T22:21:55.997Z,13.05
2018-11-12T22:24:58.789Z,13.50
2018-11-12T22:28:02.630Z,12.20
2018-11-12T22:31:05.832Z,12.30
2018-11-12T22:34:09.285Z,11.78
2018-11-12T22:37:13.317Z,12.35
2018-11-12T22:40:18.457Z,12.40
2018-11-12T22:43:21.501Z,12.35
2018-11-12T22:46:25.014Z,12.73
2018-11-12T22:49:28.100Z,11.55
2018-11-12T22:52:31.577Z,12.80
2018-11-12T22:55:35.105Z,12.35
2018-11-12T22:58:39.022Z,11.73
2018-11-12T23:01:42.726Z,11.78
2018-11-12T23:04:46.302Z,11.20
2018-11-12T23:07:49.663Z,11.88
2018-11-12T23:10:52.441Z,11.83
2018-11-12T23:13:55.221Z,10.82
2018-11-12T23:16:58.957Z,11.53
2018-11-12T23:20:01.998Z,11.85
2018-11-12T23:23:05.826Z,11.73
2018-11-12T23:26:09.391Z,11.28
2018-11-12T23:29:12.499Z,12.15
2018-11-12T23:32:15.601Z,12.23
2018-11-12T23:35:21.167Z,11.18
2018-11-12T23:38:25.561Z,11.50
2018-11-12T23:41:28.673Z,11.65
2018-11-12T23:44:33.210Z,11.43
2018-11-12T23:47:36.750Z,11.68
2018-11-12T23:50:40.994Z,11.05
2018-11-12T23:53:44.677Z,11.70
2018-11-12T23:56:48.810Z,10.50
2018-11-12T23:59:53.386Z,11.57
